Impacts METAR Board
IDs:

KORD - Chicago/O'Hare Intl, IL, US

Updated at: 0600 UTC 07 Dec 2022
Potential Impact None Slight Moderate High
Time 06/18Z 06/19Z 06/20Z 06/21Z 06/22Z 06/23Z 07/00Z 07/01Z 07/02Z 07/03Z 07/04Z 07/05Z 07/06Z
Temp43 43 43 42 42 42 43 43 41 39 37 38 38
Dewpt36 36 36 36 36 37 37 37 35 34 33 34 35
Altim30.00 29.99 30.00 30.00 30.00 30.01 30.02 30.02 30.04 30.05 30.06 30.08 30.09
VIS7 5 6 6 5 5 6 7 7 7 5 4 4
CIG13 12 13 10 10 10 11 20 90 80 -- 15 12
CoverOVCOVCOVCOVCOVCOVCOVCOVCBKNBKNSCTOVCOVC
FltCatMVFRMVFRMVFRMVFRMVFRMVFRMVFRMVFRVFRVFRMVFRMVFRMVFR
WX--HZHZBRBRBRBR------BRBRBR
WDir504020303080608000330350340
WSpd5 5 8 7 9 7 4 4 0 0 3 4 3
WGst-- -- -- -- -- -- -- -- -- -- -- -- --
Raw hourly METARs
KORD 061751Z 05005KT 7SM OVC013 06/02 A3000 RMK AO2 SLP164 T00610022 10061 20028 58006
KORD 061851Z 04005KT 5SM HZ OVC012 06/02 A2999 RMK AO2 SLP161 T00610022
KORD 061951Z 02008KT 6SM HZ OVC013 06/02 A3000 RMK AO2 SLP163 T00610022
KORD 062051Z 03007KT 6SM BR OVC010 06/02 A3000 RMK AO2 SLP164 T00560022 53000
KORD 062151Z 03009KT 5SM BR OVC010 06/02 A3000 RMK AO2 SLP163 T00560022
KORD 062251Z 08007KT 5SM BR OVC010 06/03 A3001 RMK AO2 SLP166 T00560028
KORD 062351Z 06004KT 6SM BR BKN011 BKN025 OVC070 06/03 A3002 RMK AO2 SLP170 T00610028 10061 20056 53005
KORD 070051Z 08004KT 7SM SCT013 BKN020 OVC110 06/03 A3002 RMK AO2 SLP171 T00610028
KORD 070151Z 00000KT 7SM FEW015 SCT021 BKN090 BKN140 BKN170 05/02 A3004 RMK AO2 SLP177 T00500017
KORD 070251Z 00000KT 7SM FEW015 SCT021 BKN080 04/01 A3005 RMK AO2 SLP180 T00390011 53010
KORD 070351Z 33003KT 5SM BR FEW010 SCT023 03/01 A3006 RMK AO2 SLP185 T00280006
KORD 070500Z 35004KT 4SM BR OVC015 03/01 A3008 RMK AO2 T00330011
KORD 070551Z 34003KT 4SM BR OVC012 03/02 A3009 RMK AO2 SLP194 T00330017 10061 20022 400610022 50009



Page loaded:  06:56 UTC  |   10:56 PM Pacific  |   11:56 PM Mountain  |   12:56 AM Central  |   01:56 AM Eastern

 

ADVISORIES

FORECASTS

FORECASTS

OBSERVATIONS

USER TOOLS

ABOUT US